Time;durP1;ratioP1;P1;durP2;ratioP2;P2;SDS_P1;SDS_P2;PMS_P1;PMS_P2;Temp;Humidity;BMP_temperature;BMP_pressure;BME280_temperature;BME280_humidity;BME280_pressure;Samples;Min_cycle;Max_cycle;Signal;HPM_P1;HPM_P2
2022/03/30 00:00:12;;;;;;;31.10;16.00;;;;;;;;;;6264748;22;20099;-86
2022/03/30 00:02:38;;;;;;;30.02;15.35;;;;;;;;;;6236265;22;20440;-87
2022/03/30 00:05:05;;;;;;;34.47;16.08;;;;;;;;;;6235552;22;20478;-86
2022/03/30 00:07:32;;;;;;;32.72;17.50;;;;;;;;;;6237184;22;20026;-84
2022/03/30 00:09:59;;;;;;;29.00;16.00;;;;;;;;;;6237394;22;20020;-88
2022/03/30 00:12:25;;;;;;;35.08;16.85;;;;;;;;;;6263951;22;20067;-87
2022/03/30 00:14:51;;;;;;;36.88;17.25;;;;;;;;;;6264764;22;20020;-87
2022/03/30 00:17:17;;;;;;;37.85;17.58;;;;;;;;;;6262472;22;20015;-85
2022/03/30 00:19:43;;;;;;;34.42;16.73;;;;;;;;;;6264374;22;20356;-86
2022/03/30 00:22:09;;;;;;;34.58;18.10;;;;;;;;;;6235842;22;20073;-85
2022/03/30 00:24:36;;;;;;;35.25;18.40;;;;;;;;;;6187166;22;20148;-86
2022/03/30 00:27:02;;;;;;;41.67;18.02;;;;;;;;;;6236355;22;20348;-86
2022/03/30 00:29:29;;;;;;;32.15;17.17;;;;;;;;;;6235414;22;20102;-85
2022/03/30 00:31:55;;;;;;;36.97;18.10;;;;;;;;;;6237160;22;20015;-86
2022/03/30 00:34:21;;;;;;;33.05;18.05;;;;;;;;;;6264087;22;20023;-86
2022/03/30 00:36:47;;;;;;;40.47;18.08;;;;;;;;;;6264680;22;20074;-86
2022/03/30 00:39:13;;;;;;;38.15;17.98;;;;;;;;;;6237405;22;20030;-87
2022/03/30 00:41:39;;;;;;;33.03;17.55;;;;;;;;;;6262656;22;20446;-86
2022/03/30 00:44:23;;;;;;;36.50;17.95;;;;;;;;;;6263901;22;20054;-86
2022/03/30 00:46:50;;;;;;;34.63;17.40;;;;;;;;;;6261268;22;20042;-86
2022/03/30 00:49:16;;;;;;;41.78;17.70;;;;;;;;;;6236388;22;20026;-85
2022/03/30 00:51:43;;;;;;;31.67;16.92;;;;;;;;;;6259868;22;20016;-86
2022/03/30 00:54:09;;;;;;;37.35;16.23;;;;;;;;;;6264216;22;20055;-87
2022/03/30 00:59:27;;;;;;;34.38;16.45;;;;;;;;;;6235146;22;20532;-86
2022/03/30 01:01:53;;;;;;;29.08;16.70;;;;;;;;;;6235059;22;20750;-86
2022/03/30 01:04:19;;;;;;;31.35;16.33;;;;;;;;;;6263547;22;20027;-84
2022/03/30 01:06:47;;;;;;;33.83;15.73;;;;;;;;;;6263535;22;20129;-87
2022/03/30 01:09:15;;;;;;;36.95;16.30;;;;;;;;;;6236422;22;20061;-86
2022/03/30 01:11:41;;;;;;;34.47;15.45;;;;;;;;;;6236976;22;20091;-86
2022/03/30 01:14:08;;;;;;;32.03;15.20;;;;;;;;;;6265285;22;20011;-84
2022/03/30 01:16:34;;;;;;;33.17;14.82;;;;;;;;;;6265169;22;20027;-86
2022/03/30 01:19:08;;;;;;;33.40;15.27;;;;;;;;;;6239194;22;20586;-85
2022/03/30 01:21:35;;;;;;;35.85;15.43;;;;;;;;;;6264375;22;20022;-85
2022/03/30 01:24:02;;;;;;;29.23;14.77;;;;;;;;;;6236145;22;20019;-86
2022/03/30 01:26:28;;;;;;;36.63;16.35;;;;;;;;;;6261748;22;20636;-85
2022/03/30 01:28:55;;;;;;;28.40;13.27;;;;;;;;;;6263321;22;20020;-87
2022/03/30 01:34:06;;;;;;;28.98;13.90;;;;;;;;;;6263723;22;20102;-87
2022/03/30 01:36:32;;;;;;;37.63;15.05;;;;;;;;;;6263848;22;20024;-87
2022/03/30 01:38:58;;;;;;;42.40;16.20;;;;;;;;;;6262253;22;20469;-85
2022/03/30 01:41:24;;;;;;;34.28;15.63;;;;;;;;;;6262843;22;20020;-87
2022/03/30 01:43:50;;;;;;;36.38;15.18;;;;;;;;;;6186976;22;20016;-86
2022/03/30 01:46:16;;;;;;;33.42;15.82;;;;;;;;;;6262472;22;20019;-86
2022/03/30 01:48:43;;;;;;;30.33;15.68;;;;;;;;;;6262857;22;20020;-85
2022/03/30 01:51:10;;;;;;;38.38;14.65;;;;;;;;;;6265399;22;20012;-85
2022/03/30 01:53:36;;;;;;;29.85;15.57;;;;;;;;;;6238087;22;20023;-85
2022/03/30 01:56:02;;;;;;;43.95;17.23;;;;;;;;;;6263999;22;20035;-85
2022/03/30 01:58:28;;;;;;;40.40;16.05;;;;;;;;;;6261562;22;20011;-86
2022/03/30 02:00:54;;;;;;;39.80;16.85;;;;;;;;;;6235409;22;20016;-85
2022/03/30 02:03:21;;;;;;;37.15;17.35;;;;;;;;;;6262951;22;20536;-86
2022/03/30 02:05:47;;;;;;;37.53;15.73;;;;;;;;;;6261865;22;20016;-86
2022/03/30 02:08:13;;;;;;;26.05;14.38;;;;;;;;;;6260737;22;20368;-86
2022/03/30 02:10:39;;;;;;;18.10;6.72;;;;;;;;;;6260763;22;20055;-85
2022/03/30 02:13:05;;;;;;;5.28;2.63;;;;;;;;;;6236273;22;20016;-84
2022/03/30 02:15:32;;;;;;;6.47;2.95;;;;;;;;;;6262264;22;20043;-84
2022/03/30 02:17:59;;;;;;;5.97;1.77;;;;;;;;;;6262122;22;20049;-85
2022/03/30 02:20:25;;;;;;;3.85;1.80;;;;;;;;;;6209907;22;20340;-85
2022/03/30 02:22:51;;;;;;;3.75;1.90;;;;;;;;;;6263838;22;20043;-85
2022/03/30 02:25:18;;;;;;;1.25;1.13;;;;;;;;;;6237135;22;20117;-84
2022/03/30 02:27:44;;;;;;;2.10;0.88;;;;;;;;;;6264332;22;20464;-85
2022/03/30 02:30:10;;;;;;;3.92;1.42;;;;;;;;;;6264938;22;20023;-84
2022/03/30 02:32:36;;;;;;;3.92;1.00;;;;;;;;;;6243311;22;20360;-85
2022/03/30 02:35:03;;;;;;;3.00;1.05;;;;;;;;;;6265876;22;20027;-85
2022/03/30 02:37:29;;;;;;;3.80;0.90;;;;;;;;;;6218125;22;20046;-86
2022/03/30 02:39:55;;;;;;;3.45;1.20;;;;;;;;;;6272093;22;20023;-86
2022/03/30 02:42:21;;;;;;;1.60;0.73;;;;;;;;;;6274349;22;20016;-86
2022/03/30 02:44:48;;;;;;;2.25;0.82;;;;;;;;;;6271344;22;20018;-85
2022/03/30 02:47:14;;;;;;;1.80;0.80;;;;;;;;;;6266329;22;20019;-85
2022/03/30 02:49:40;;;;;;;6.28;0.82;;;;;;;;;;6266758;22;20669;-84
2022/03/30 02:52:07;;;;;;;1.77;0.75;;;;;;;;;;6267908;22;20039;-85
2022/03/30 02:54:33;;;;;;;1.30;0.70;;;;;;;;;;6237459;22;20016;-85
2022/03/30 02:56:59;;;;;;;1.42;0.90;;;;;;;;;;6238765;22;20035;-84
2022/03/30 02:59:25;;;;;;;2.17;0.63;;;;;;;;;;6264774;22;20023;-84
2022/03/30 03:01:54;;;;;;;2.13;0.70;;;;;;;;;;6239031;22;20101;-84
2022/03/30 03:04:20;;;;;;;3.65;0.80;;;;;;;;;;6238981;22;20460;-84
2022/03/30 03:06:48;;;;;;;1.23;0.60;;;;;;;;;;6187969;22;20026;-84
2022/03/30 03:09:14;;;;;;;3.05;0.75;;;;;;;;;;6211213;22;20027;-83
2022/03/30 03:11:40;;;;;;;3.33;0.80;;;;;;;;;;6265798;22;20016;-84
2022/03/30 03:14:07;;;;;;;0.90;0.57;;;;;;;;;;6189234;22;20024;-85
2022/03/30 03:16:34;;;;;;;3.88;0.90;;;;;;;;;;6187649;22;20415;-85
2022/03/30 03:19:01;;;;;;;2.05;0.60;;;;;;;;;;6241122;22;20380;-85
2022/03/30 03:21:27;;;;;;;1.95;0.50;;;;;;;;;;6265560;22;20440;-85
2022/03/30 03:23:53;;;;;;;1.63;0.60;;;;;;;;;;6265784;22;20020;-86
2022/03/30 03:26:19;;;;;;;0.43;0.40;;;;;;;;;;6264695;22;20058;-85
2022/03/30 03:28:45;;;;;;;1.02;0.60;;;;;;;;;;6215042;22;20027;-85
2022/03/30 03:31:11;;;;;;;0.60;0.40;;;;;;;;;;6212778;22;20019;-85
2022/03/30 03:33:37;;;;;;;1.67;0.50;;;;;;;;;;6239532;22;20015;-84
2022/03/30 03:36:04;;;;;;;0.70;0.30;;;;;;;;;;6266670;22;20355;-86
2022/03/30 03:38:30;;;;;;;0.35;0.35;;;;;;;;;;6238984;22;20081;-87
2022/03/30 03:40:56;;;;;;;0.40;0.40;;;;;;;;;;6266201;22;20015;-85
2022/03/30 03:43:22;;;;;;;1.13;0.40;;;;;;;;;;6243178;22;20103;-85
2022/03/30 03:45:49;;;;;;;0.40;0.40;;;;;;;;;;6242014;22;20343;-86
2022/03/30 03:48:15;;;;;;;0.40;0.40;;;;;;;;;;6237851;22;20028;-86
2022/03/30 03:50:43;;;;;;;1.27;0.47;;;;;;;;;;6220548;22;20016;-87
2022/03/30 03:53:09;;;;;;;3.63;1.15;;;;;;;;;;6265857;22;20047;-86
2022/03/30 03:55:36;;;;;;;2.20;1.55;;;;;;;;;;6242035;22;20008;-85
2022/03/30 03:58:03;;;;;;;3.35;1.70;;;;;;;;;;6252750;22;20011;-85
2022/03/30 04:00:29;;;;;;;1.70;1.00;;;;;;;;;;6239923;22;20042;-86
2022/03/30 04:02:56;;;;;;;5.90;1.20;;;;;;;;;;6237858;22;20062;-86
2022/03/30 04:05:22;;;;;;;0.65;0.60;;;;;;;;;;6268108;22;20019;-85
2022/03/30 04:07:51;;;;;;;1.23;0.88;;;;;;;;;;6242045;22;20443;-86
2022/03/30 04:10:17;;;;;;;0.70;0.70;;;;;;;;;;6238441;22;20019;-85
2022/03/30 04:12:44;;;;;;;1.38;0.60;;;;;;;;;;6264445;22;20022;-85
2022/03/30 04:15:10;;;;;;;3.28;0.60;;;;;;;;;;6265749;22;20011;-85
2022/03/30 04:17:44;;;;;;;3.28;0.65;;;;;;;;;;6238986;22;20019;-86
2022/03/30 04:20:10;;;;;;;0.90;0.50;;;;;;;;;;6238488;22;20102;-84
2022/03/30 04:22:36;;;;;;;3.92;0.50;;;;;;;;;;6264284;22;20015;-85
2022/03/30 04:25:04;;;;;;;2.05;0.63;;;;;;;;;;6265078;22;20020;-84
2022/03/30 04:27:30;;;;;;;1.80;0.55;;;;;;;;;;6265453;22;20023;-85
2022/03/30 04:29:56;;;;;;;0.65;0.50;;;;;;;;;;6264981;22;20448;-85
2022/03/30 04:32:22;;;;;;;2.15;0.60;;;;;;;;;;6264270;22;20546;-85
2022/03/30 04:34:48;;;;;;;1.08;0.50;;;;;;;;;;6238225;22;20089;-84
2022/03/30 04:37:15;;;;;;;0.63;0.40;;;;;;;;;;6238047;22;20344;-84
2022/03/30 04:39:41;;;;;;;1.40;0.60;;;;;;;;;;6264193;22;20062;-85
2022/03/30 04:42:08;;;;;;;2.67;0.75;;;;;;;;;;6261633;22;20104;-84
2022/03/30 04:44:34;;;;;;;2.90;0.60;;;;;;;;;;6186086;22;20019;-85
2022/03/30 04:47:00;;;;;;;4.80;1.50;;;;;;;;;;6185820;22;20022;-84
2022/03/30 04:49:26;;;;;;;5.30;1.20;;;;;;;;;;6263354;22;20058;-85
2022/03/30 04:52:04;;;;;;;6.82;1.15;;;;;;;;;;6261987;22;20027;-85
2022/03/30 04:54:30;;;;;;;4.78;1.02;;;;;;;;;;6263068;22;20020;-84
2022/03/30 04:56:56;;;;;;;3.38;1.20;;;;;;;;;;6236288;22;20105;-85
2022/03/30 04:59:22;;;;;;;3.42;1.00;;;;;;;;;;6261660;22;20020;-86
2022/03/30 05:01:48;;;;;;;4.60;0.77;;;;;;;;;;6262139;22;20085;-84
2022/03/30 05:04:14;;;;;;;4.07;1.10;;;;;;;;;;6210139;22;20020;-85
2022/03/30 05:06:40;;;;;;;7.45;1.60;;;;;;;;;;6235772;22;20016;-85
2022/03/30 05:09:06;;;;;;;3.38;1.15;;;;;;;;;;6264167;22;20523;-86
2022/03/30 05:11:32;;;;;;;4.32;1.13;;;;;;;;;;6263763;22;20348;-84
2022/03/30 05:13:58;;;;;;;3.17;1.08;;;;;;;;;;6265365;22;20545;-85
2022/03/30 05:16:24;;;;;;;5.30;1.23;;;;;;;;;;6236856;22;20417;-85
2022/03/30 05:18:51;;;;;;;5.18;1.10;;;;;;;;;;6212184;22;20024;-85
2022/03/30 05:21:19;;;;;;;6.15;1.30;;;;;;;;;;6263882;22;20019;-85
2022/03/30 05:23:48;;;;;;;6.47;1.20;;;;;;;;;;6214869;22;20019;-85
2022/03/30 05:26:14;;;;;;;8.05;1.35;;;;;;;;;;6264931;22;20344;-85
2022/03/30 05:28:42;;;;;;;5.97;1.33;;;;;;;;;;6269341;22;20024;-84
2022/03/30 05:31:08;;;;;;;3.08;1.20;;;;;;;;;;6287525;22;20112;-84
2022/03/30 05:33:34;;;;;;;4.95;1.20;;;;;;;;;;6267104;22;20016;-84
2022/03/30 05:36:00;;;;;;;6.13;1.08;;;;;;;;;;6237719;22;21158;-84
2022/03/30 05:38:26;;;;;;;4.43;1.10;;;;;;;;;;6264974;22;20098;-84
2022/03/30 05:40:53;;;;;;;4.80;0.93;;;;;;;;;;6266360;22;20066;-84
2022/03/30 05:43:21;;;;;;;7.63;1.20;;;;;;;;;;6266435;22;20019;-84
2022/03/30 05:45:47;;;;;;;8.15;0.93;;;;;;;;;;6265679;22;20517;-85
2022/03/30 05:48:13;;;;;;;6.35;1.13;;;;;;;;;;6215215;22;20099;-84
2022/03/30 05:50:40;;;;;;;7.18;0.98;;;;;;;;;;6240726;22;20073;-84
2022/03/30 05:53:06;;;;;;;6.32;1.10;;;;;;;;;;6266978;22;20016;-84
2022/03/30 05:55:32;;;;;;;3.13;1.02;;;;;;;;;;6266811;22;20023;-84
2022/03/30 05:58:05;;;;;;;6.70;1.15;;;;;;;;;;6267721;22;20328;-84
2022/03/30 06:00:31;;;;;;;3.45;1.20;;;;;;;;;;6215798;22;20073;-84
2022/03/30 06:02:57;;;;;;;6.28;1.30;;;;;;;;;;6215807;22;20015;-85
2022/03/30 06:05:23;;;;;;;3.40;1.10;;;;;;;;;;6267329;22;20038;-83
2022/03/30 06:07:49;;;;;;;5.10;1.33;;;;;;;;;;6266543;22;20019;-84
2022/03/30 06:10:16;;;;;;;5.55;1.17;;;;;;;;;;6240522;22;20019;-83
2022/03/30 06:12:42;;;;;;;4.18;1.65;;;;;;;;;;6267757;22;20050;-83
2022/03/30 06:15:09;;;;;;;2.95;1.00;;;;;;;;;;6242002;22;20560;-84
2022/03/30 06:17:35;;;;;;;4.80;1.40;;;;;;;;;;6216742;22;20030;-85
2022/03/30 06:20:03;;;;;;;3.83;1.40;;;;;;;;;;6270086;22;20067;-85
2022/03/30 06:22:30;;;;;;;7.70;2.85;;;;;;;;;;6221697;22;20031;-84
2022/03/30 06:24:56;;;;;;;1.85;1.40;;;;;;;;;;6268976;22;20089;-85
2022/03/30 06:27:22;;;;;;;4.40;1.90;;;;;;;;;;6238488;22;20047;-83
2022/03/30 06:29:48;;;;;;;3.72;1.70;;;;;;;;;;6265858;22;20344;-83
2022/03/30 06:32:14;;;;;;;3.97;1.00;;;;;;;;;;6266694;22;20026;-81
2022/03/30 06:34:40;;;;;;;7.95;1.60;;;;;;;;;;6240820;22;20019;-83
2022/03/30 06:37:07;;;;;;;1.92;0.88;;;;;;;;;;6240214;22;20024;-82
2022/03/30 06:39:34;;;;;;;2.83;1.00;;;;;;;;;;6267935;22;20031;-83
2022/03/30 06:42:01;;;;;;;5.88;1.00;;;;;;;;;;6267292;22;20027;-82
2022/03/30 06:44:27;;;;;;;1.88;1.17;;;;;;;;;;6266805;22;20340;-82
2022/03/30 06:46:53;;;;;;;6.85;1.40;;;;;;;;;;6240585;22;20020;-82
2022/03/30 06:49:19;;;;;;;1.67;0.70;;;;;;;;;;6216215;22;20102;-82
2022/03/30 06:51:45;;;;;;;6.22;1.38;;;;;;;;;;6267752;22;20020;-83
2022/03/30 06:54:11;;;;;;;2.30;1.00;;;;;;;;;;6240212;22;20482;-82
2022/03/30 06:56:37;;;;;;;5.28;1.30;;;;;;;;;;6237802;22;20027;-82
2022/03/30 06:59:04;;;;;;;3.83;1.10;;;;;;;;;;6238294;22;20028;-83
2022/03/30 07:01:30;;;;;;;6.90;1.10;;;;;;;;;;6266254;22;20015;-81
2022/03/30 07:03:59;;;;;;;8.30;1.40;;;;;;;;;;6268205;22;20040;-82
2022/03/30 07:06:25;;;;;;;9.15;1.23;;;;;;;;;;6266873;22;20019;-82
2022/03/30 07:11:35;;;;;;;5.85;1.20;;;;;;;;;;6239640;22;20024;-82
2022/03/30 07:14:01;;;;;;;6.30;1.23;;;;;;;;;;6240136;22;20329;-81
2022/03/30 07:16:28;;;;;;;8.63;1.45;;;;;;;;;;6266780;22;20011;-82
2022/03/30 07:18:55;;;;;;;5.38;0.88;;;;;;;;;;6267936;22;21447;-81
2022/03/30 07:21:21;;;;;;;3.78;1.17;;;;;;;;;;6240700;22;20093;-81
2022/03/30 07:23:47;;;;;;;2.42;0.85;;;;;;;;;;6268054;22;20016;-81
2022/03/30 07:26:13;;;;;;;5.30;1.25;;;;;;;;;;6268073;22;20016;-81
2022/03/30 07:28:39;;;;;;;4.95;0.82;;;;;;;;;;6267608;22;20115;-83
2022/03/30 07:31:05;;;;;;;7.50;1.83;;;;;;;;;;6267477;22;20016;-81
2022/03/30 07:33:33;;;;;;;5.20;1.30;;;;;;;;;;6266992;22;20022;-82
2022/03/30 07:35:59;;;;;;;10.60;1.73;;;;;;;;;;6266610;22;20020;-82
2022/03/30 07:38:25;;;;;;;5.07;1.10;;;;;;;;;;6267034;22;20026;-82
2022/03/30 07:40:53;;;;;;;2.15;0.50;;;;;;;;;;6267536;22;20016;-82
2022/03/30 07:43:19;;;;;;;9.23;1.20;;;;;;;;;;6240464;22;20015;-82
2022/03/30 07:45:45;;;;;;;5.65;1.10;;;;;;;;;;6240723;22;20077;-83
2022/03/30 07:48:15;;;;;;;3.80;1.00;;;;;;;;;;6268397;22;20118;-83
2022/03/30 07:50:41;;;;;;;7.32;1.20;;;;;;;;;;6270747;22;20066;-85
2022/03/30 07:53:10;;;;;;;7.68;1.27;;;;;;;;;;6267714;22;20027;-83
2022/03/30 07:55:40;;;;;;;3.15;1.45;;;;;;;;;;6268276;22;20019;-85
2022/03/30 07:58:06;;;;;;;5.78;1.25;;;;;;;;;;6217029;22;20034;-84
2022/03/30 08:00:34;;;;;;;4.50;1.17;;;;;;;;;;6270317;22;20016;-83
2022/03/30 08:03:01;;;;;;;6.47;1.30;;;;;;;;;;6243480;22;20375;-84
2022/03/30 08:05:30;;;;;;;8.30;1.58;;;;;;;;;;6268644;22;20023;-83
2022/03/30 08:07:56;;;;;;;5.25;1.65;;;;;;;;;;6267429;22;20436;-83
2022/03/30 08:10:23;;;;;;;8.77;1.70;;;;;;;;;;6267289;22;20020;-83
2022/03/30 08:12:49;;;;;;;7.05;1.50;;;;;;;;;;6266731;22;20023;-83
2022/03/30 08:15:15;;;;;;;12.77;2.38;;;;;;;;;;6267492;22;20019;-84
2022/03/30 08:17:44;;;;;;;5.45;1.70;;;;;;;;;;6267371;22;20023;-83
2022/03/30 08:20:12;;;;;;;8.75;1.50;;;;;;;;;;6240521;22;20027;-83
2022/03/30 08:22:38;;;;;;;5.32;1.65;;;;;;;;;;6266989;22;20019;-83
2022/03/30 08:25:10;;;;;;;6.20;1.67;;;;;;;;;;6247634;22;20020;-83
2022/03/30 08:27:36;;;;;;;5.20;1.50;;;;;;;;;;6241392;22;20098;-83
2022/03/30 08:30:19;;;;;;;20.45;1.88;;;;;;;;;;6268577;22;20051;-83
2022/03/30 08:32:51;;;;;;;5.88;1.65;;;;;;;;;;6248963;22;20019;-84
2022/03/30 08:35:21;;;;;;;9.57;1.52;;;;;;;;;;6279537;22;20376;-82
2022/03/30 08:37:53;;;;;;;5.95;1.35;;;;;;;;;;6279595;22;20023;-83
2022/03/30 08:40:22;;;;;;;4.07;1.90;;;;;;;;;;6268258;22;20328;-84
2022/03/30 08:42:49;;;;;;;5.00;1.60;;;;;;;;;;6267555;22;20574;-83
2022/03/30 08:45:15;;;;;;;4.57;1.35;;;;;;;;;;6242710;22;20501;-84
2022/03/30 08:47:41;;;;;;;4.32;1.98;;;;;;;;;;6217836;22;20053;-83
2022/03/30 08:50:08;;;;;;;6.22;1.75;;;;;;;;;;6270532;22;20024;-83
2022/03/30 08:52:34;;;;;;;8.77;1.55;;;;;;;;;;6269182;22;20016;-83
2022/03/30 08:55:01;;;;;;;5.03;1.30;;;;;;;;;;6267427;22;20118;-82
2022/03/30 08:57:27;;;;;;;7.00;1.75;;;;;;;;;;6215059;22;20019;-84
2022/03/30 09:00:05;;;;;;;6.53;1.88;;;;;;;;;;6202564;23;20016;-83
2022/03/30 09:02:50;;;;;;;5.40;2.65;;;;;;;;;;6204425;23;20053;-82
2022/03/30 09:05:27;;;;;;;6.78;1.83;;;;;;;;;;6202744;23;20040;-82
2022/03/30 09:08:10;;;;;;;5.60;1.60;;;;;;;;;;6202512;23;20560;-82
2022/03/30 09:10:37;;;;;;;7.20;1.70;;;;;;;;;;6203442;23;20087;-82
2022/03/30 09:13:04;;;;;;;6.88;1.60;;;;;;;;;;6202707;23;20089;-82
2022/03/30 09:15:34;;;;;;;5.00;1.45;;;;;;;;;;6203320;23;20334;-84
2022/03/30 09:18:02;;;;;;;8.10;1.58;;;;;;;;;;6203093;23;20555;-83
2022/03/30 09:20:28;;;;;;;5.38;1.58;;;;;;;;;;6202831;23;20448;-82
2022/03/30 09:22:55;;;;;;;5.68;1.50;;;;;;;;;;6156732;23;20016;-83
2022/03/30 09:25:26;;;;;;;6.40;1.65;;;;;;;;;;6211887;23;20020;-84
2022/03/30 09:27:53;;;;;;;5.53;1.30;;;;;;;;;;6207605;23;20025;-85
2022/03/30 09:30:29;;;;;;;8.77;1.50;;;;;;;;;;6224387;22;20042;-84
2022/03/30 09:32:57;;;;;;;8.73;1.50;;;;;;;;;;6271340;22;20015;-84
2022/03/30 09:35:46;;;;;;;7.20;1.40;;;;;;;;;;6270578;22;20011;-85
2022/03/30 09:38:12;;;;;;;5.10;1.20;;;;;;;;;;6270030;22;20037;-84
2022/03/30 09:40:40;;;;;;;5.88;1.13;;;;;;;;;;6270292;22;20089;-85
2022/03/30 09:43:10;;;;;;;6.35;1.45;;;;;;;;;;6271859;22;20022;-85
2022/03/30 09:45:36;;;;;;;4.72;1.30;;;;;;;;;;6272147;22;20094;-84
2022/03/30 09:48:32;;;;;;;8.90;1.25;;;;;;;;;;6245359;22;20026;-85
2022/03/30 09:51:10;;;;;;;5.95;0.98;;;;;;;;;;6279833;22;20020;-82
2022/03/30 09:53:38;;;;;;;6.40;1.23;;;;;;;;;;6278673;22;20452;-83
2022/03/30 09:56:05;;;;;;;4.35;1.05;;;;;;;;;;6276574;22;20031;-85
2022/03/30 09:58:32;;;;;;;5.28;1.33;;;;;;;;;;6247401;22;20099;-85
2022/03/30 10:01:19;;;;;;;6.10;1.23;;;;;;;;;;6273042;22;20020;-84
2022/03/30 10:04:01;;;;;;;4.15;1.20;;;;;;;;;;6274924;22;20066;-84
2022/03/30 10:06:53;;;;;;;8.77;1.35;;;;;;;;;;6242502;22;20020;-84
2022/03/30 10:09:22;;;;;;;11.48;1.33;;;;;;;;;;6263575;22;20351;-83
2022/03/30 10:11:49;;;;;;;4.32;2.22;;;;;;;;;;6242846;22;20034;-83
2022/03/30 10:14:16;;;;;;;12.98;3.05;;;;;;;;;;6268332;22;20023;-83
2022/03/30 10:16:45;;;;;;;6.10;1.27;;;;;;;;;;6216360;22;20054;-83
2022/03/30 10:19:12;;;;;;;4.95;1.38;;;;;;;;;;6267554;22;20344;-83
2022/03/30 10:21:47;;;;;;;12.30;1.60;;;;;;;;;;6270313;22;20024;-82
2022/03/30 10:24:32;;;;;;;8.00;1.85;;;;;;;;;;6272683;22;20487;-85
2022/03/30 10:27:12;;;;;;;9.13;1.02;;;;;;;;;;6273093;22;20022;-83
2022/03/30 10:29:39;;;;;;;8.23;1.10;;;;;;;;;;6222639;22;20051;-83
2022/03/30 10:32:09;;;;;;;3.88;1.00;;;;;;;;;;6270930;22;20033;-82
2022/03/30 10:34:40;;;;;;;4.22;1.13;;;;;;;;;;6268828;22;20086;-81
2022/03/30 10:37:09;;;;;;;7.10;1.08;;;;;;;;;;6268280;22;20038;-82
2022/03/30 10:39:53;;;;;;;3.70;0.80;;;;;;;;;;6269991;22;20452;-82
2022/03/30 10:42:21;;;;;;;3.75;1.42;;;;;;;;;;6241338;22;20058;-82
2022/03/30 10:44:49;;;;;;;5.13;0.93;;;;;;;;;;6245503;22;20023;-82
2022/03/30 10:47:20;;;;;;;14.15;2.20;;;;;;;;;;6232284;22;20072;-82
2022/03/30 10:49:50;;;;;;;4.35;0.80;;;;;;;;;;6260395;22;20019;-83
2022/03/30 10:52:42;;;;;;;4.63;1.00;;;;;;;;;;6278347;22;20030;-83
2022/03/30 10:55:14;;;;;;;3.40;0.80;;;;;;;;;;6274082;22;20109;-82
2022/03/30 10:58:03;;;;;;;4.93;0.85;;;;;;;;;;6269126;22;20031;-82
2022/03/30 11:00:35;;;;;;;4.40;1.20;;;;;;;;;;6229329;22;20082;-83
2022/03/30 11:03:14;;;;;;;3.22;0.80;;;;;;;;;;6217109;22;20451;-83
2022/03/30 11:05:45;;;;;;;2.88;0.82;;;;;;;;;;6267790;22;20020;-83
2022/03/30 11:08:42;;;;;;;3.80;0.82;;;;;;;;;;6269827;22;20023;-82
2022/03/30 11:11:20;;;;;;;7.55;0.90;;;;;;;;;;6267518;22;20097;-82
2022/03/30 11:13:46;;;;;;;7.00;1.00;;;;;;;;;;6270835;22;20043;-83
2022/03/30 11:16:13;;;;;;;7.30;1.08;;;;;;;;;;6245950;22;20016;-83
2022/03/30 11:19:02;;;;;;;2.25;1.30;;;;;;;;;;6265188;22;20362;-82
2022/03/30 11:21:31;;;;;;;6.13;1.27;;;;;;;;;;6223813;22;20038;-82
2022/03/30 11:24:05;;;;;;;2.33;0.85;;;;;;;;;;6270465;22;20098;-81
2022/03/30 11:27:06;;;;;;;12.30;0.93;;;;;;;;;;6274257;22;20049;-83
2022/03/30 11:30:03;;;;;;;4.38;1.10;;;;;;;;;;6242392;22;20073;-82
2022/03/30 11:32:30;;;;;;;6.25;0.95;;;;;;;;;;6266686;22;20498;-84
2022/03/30 11:34:58;;;;;;;2.92;1.33;;;;;;;;;;6269626;22;20022;-84
2022/03/30 11:37:31;;;;;;;6.47;1.05;;;;;;;;;;6266058;22;20026;-83
2022/03/30 11:40:05;;;;;;;6.65;1.42;;;;;;;;;;6271057;22;20020;-84
2022/03/30 11:42:31;;;;;;;5.18;1.02;;;;;;;;;;6269452;22;20868;-83
2022/03/30 11:45:13;;;;;;;7.80;1.52;;;;;;;;;;6270522;22;20387;-83
2022/03/30 11:47:43;;;;;;;8.52;1.00;;;;;;;;;;6266934;22;20451;-83
2022/03/30 11:50:09;;;;;;;4.35;0.85;;;;;;;;;;6239501;22;20055;-82
2022/03/30 11:52:35;;;;;;;6.68;0.95;;;;;;;;;;6266039;22;20409;-82
2022/03/30 11:55:08;;;;;;;7.43;1.10;;;;;;;;;;6241194;22;20077;-82
2022/03/30 11:57:43;;;;;;;4.65;0.90;;;;;;;;;;6268225;22;20027;-82
2022/03/30 12:00:10;;;;;;;10.27;0.80;;;;;;;;;;6266316;22;20020;-83
2022/03/30 12:02:46;;;;;;;5.00;1.15;;;;;;;;;;6268620;22;20109;-83
2022/03/30 12:05:12;;;;;;;3.63;1.25;;;;;;;;;;6269133;22;20027;-82
2022/03/30 12:07:41;;;;;;;6.18;0.80;;;;;;;;;;6268220;22;20012;-84
2022/03/30 12:10:15;;;;;;;3.40;1.10;;;;;;;;;;6264547;22;20030;-83
2022/03/30 12:12:42;;;;;;;4.50;1.02;;;;;;;;;;6269781;22;20022;-85
2022/03/30 12:15:11;;;;;;;7.65;1.23;;;;;;;;;;6240006;22;20026;-84
2022/03/30 12:17:37;;;;;;;4.97;1.00;;;;;;;;;;6268162;22;20517;-84
2022/03/30 12:20:05;;;;;;;3.45;0.98;;;;;;;;;;6266320;22;20016;-83
2022/03/30 12:22:31;;;;;;;3.35;0.88;;;;;;;;;;6267068;22;20069;-83
2022/03/30 12:24:58;;;;;;;5.00;1.33;;;;;;;;;;6267495;22;20039;-83
2022/03/30 12:27:24;;;;;;;2.40;0.70;;;;;;;;;;6268265;22;20387;-82
2022/03/30 12:29:54;;;;;;;7.53;1.20;;;;;;;;;;6267596;22;20102;-84
2022/03/30 12:32:23;;;;;;;2.83;0.70;;;;;;;;;;6268308;22;20020;-82
2022/03/30 12:35:11;;;;;;;9.10;1.48;;;;;;;;;;6267701;22;20045;-83
2022/03/30 12:37:37;;;;;;;3.30;0.73;;;;;;;;;;6215579;22;20051;-83
2022/03/30 12:40:14;;;;;;;3.90;1.27;;;;;;;;;;6241388;22;20023;-83
2022/03/30 12:42:41;;;;;;;3.33;0.82;;;;;;;;;;6267768;22;20538;-83
2022/03/30 12:45:11;;;;;;;2.58;0.88;;;;;;;;;;6267123;22;20019;-83
2022/03/30 12:47:45;;;;;;;4.90;1.50;;;;;;;;;;6266196;22;20031;-83
2022/03/30 12:50:11;;;;;;;;;;;;;;;;;;6240301;22;20055;-84
2022/03/30 12:52:39;;;;;;;5.30;1.00;;;;;;;;;;6267104;22;19922;-84
2022/03/30 12:55:34;;;;;;;3.80;0.75;;;;;;;;;;6266850;22;20379;-83
2022/03/30 12:58:08;;;;;;;5.13;1.00;;;;;;;;;;6265809;22;20357;-83
2022/03/30 13:00:38;;;;;;;6.05;0.60;;;;;;;;;;6266162;22;20146;-82
2022/03/30 13:03:09;;;;;;;6.70;1.02;;;;;;;;;;6243076;22;20035;-83
2022/03/30 13:05:42;;;;;;;4.93;1.00;;;;;;;;;;6275379;22;20067;-83
2022/03/30 13:08:21;;;;;;;4.73;1.10;;;;;;;;;;6282148;22;20034;-83
2022/03/30 13:10:51;;;;;;;6.90;0.88;;;;;;;;;;6280208;22;20031;-83
2022/03/30 13:13:20;;;;;;;5.70;0.88;;;;;;;;;;6279385;22;20024;-84
2022/03/30 13:15:46;;;;;;;2.65;0.88;;;;;;;;;;6266019;22;20046;-84
2022/03/30 13:18:15;;;;;;;6.43;1.33;;;;;;;;;;6239295;22;20027;-84
2022/03/30 13:20:47;;;;;;;3.28;0.85;;;;;;;;;;6240712;22;20023;-83
2022/03/30 13:23:15;;;;;;;2.45;0.65;;;;;;;;;;6243497;22;20051;-84
2022/03/30 13:25:43;;;;;;;4.70;0.85;;;;;;;;;;6218285;22;20020;-83
2022/03/30 13:28:23;;;;;;;3.53;1.00;;;;;;;;;;6212627;22;20020;-83
2022/03/30 13:30:49;;;;;;;3.90;0.93;;;;;;;;;;6271289;22;20393;-83
2022/03/30 13:33:16;;;;;;;6.90;1.17;;;;;;;;;;6243533;22;20020;-82
2022/03/30 13:35:42;;;;;;;3.33;1.08;;;;;;;;;;6273428;22;20023;-83
2022/03/30 13:38:18;;;;;;;4.65;1.00;;;;;;;;;;6240728;22;20015;-82
2022/03/30 13:40:44;;;;;;;9.40;0.90;;;;;;;;;;6269410;22;20027;-82
2022/03/30 13:43:14;;;;;;;6.30;1.42;;;;;;;;;;6215575;22;20046;-84
2022/03/30 13:45:43;;;;;;;5.75;0.80;;;;;;;;;;6241869;22;20038;-83
2022/03/30 13:48:09;;;;;;;7.80;1.00;;;;;;;;;;6268483;22;20282;-81
2022/03/30 13:50:35;;;;;;;3.50;0.85;;;;;;;;;;6242138;22;20024;-83
2022/03/30 13:53:04;;;;;;;6.05;0.90;;;;;;;;;;6242665;22;20020;-82
2022/03/30 13:55:33;;;;;;;6.38;0.90;;;;;;;;;;6269809;22;20024;-83
2022/03/30 13:58:13;;;;;;;4.95;0.90;;;;;;;;;;6269785;22;20055;-83
2022/03/30 14:00:52;;;;;;;5.95;1.23;;;;;;;;;;6272169;22;20030;-82
2022/03/30 14:03:20;;;;;;;4.28;0.98;;;;;;;;;;6242464;22;20584;-83
2022/03/30 14:05:46;;;;;;;3.65;1.02;;;;;;;;;;6269282;22;20585;-83
2022/03/30 14:08:15;;;;;;;3.35;1.02;;;;;;;;;;6269328;22;20015;-82
2022/03/30 14:10:42;;;;;;;3.15;0.80;;;;;;;;;;6243106;22;20043;-83
2022/03/30 14:13:13;;;;;;;5.68;0.93;;;;;;;;;;6269880;22;20027;-84
2022/03/30 14:15:39;;;;;;;2.72;0.80;;;;;;;;;;6241100;22;20016;-83
2022/03/30 14:18:08;;;;;;;2.90;0.70;;;;;;;;;;6268329;22;20051;-83
2022/03/30 14:20:43;;;;;;;4.60;1.00;;;;;;;;;;6269191;22;20081;-84
2022/03/30 14:23:11;;;;;;;3.08;0.82;;;;;;;;;;6270518;22;20023;-84
2022/03/30 14:25:39;;;;;;;5.72;1.85;;;;;;;;;;6244900;22;20050;-84
2022/03/30 14:28:06;;;;;;;6.10;1.10;;;;;;;;;;6271490;22;20055;-83
2022/03/30 14:30:32;;;;;;;3.53;0.77;;;;;;;;;;6270087;22;20093;-81
2022/03/30 14:33:02;;;;;;;3.25;0.75;;;;;;;;;;6267446;22;20024;-84
2022/03/30 14:38:46;;;;;;;8.45;1.10;;;;;;;;;;6235662;22;20076;-83
2022/03/30 14:41:12;;;;;;;4.70;0.90;;;;;;;;;;6269971;22;20403;-84
2022/03/30 14:43:39;;;;;;;4.10;1.00;;;;;;;;;;6274909;22;20409;-84
2022/03/30 14:46:05;;;;;;;6.05;1.08;;;;;;;;;;6275410;22;20016;-83
2022/03/30 14:48:37;;;;;;;5.97;0.80;;;;;;;;;;6247714;22;20042;-85
2022/03/30 14:51:03;;;;;;;7.78;1.73;;;;;;;;;;6248252;22;20093;-85
2022/03/30 14:53:31;;;;;;;4.53;1.00;;;;;;;;;;6219233;22;20019;-84
2022/03/30 14:56:00;;;;;;;6.13;1.65;;;;;;;;;;6273012;22;20011;-83
2022/03/30 14:58:27;;;;;;;7.80;1.70;;;;;;;;;;6270700;22;20020;-84